Time;durP1;ratioP1;P1;durP2;ratioP2;P2;SDS_P1;SDS_P2;PMS_P1;PMS_P2;Temp;Humidity;BMP_temperature;BMP_pressure;BME280_temperature;BME280_humidity;BME280_pressure;Samples;Min_cycle;Max_cycle;Signal;HPM_P1;HPM_P2
2021/12/24 00:00:24;;;;;;;17.13;15.30;;;;;21.90;99364.00;;;;2087180;28;20217;-46
2021/12/24 00:01:24;;;;;;;18.63;16.63;;;;;21.90;99367.00;;;;2087236;28;20463;-47
2021/12/24 00:02:24;;;;;;;17.87;15.97;;;;;22.00;99356.00;;;;2087835;28;20251;-47
2021/12/24 00:03:25;;;;;;;17.53;15.60;;;;;22.00;99356.00;;;;2083572;28;20228;-47
2021/12/24 00:04:26;;;;;;;18.50;16.27;;;;;22.00;99364.00;;;;2087234;28;20208;-47
2021/12/24 00:05:26;;;;;;;16.93;15.13;;;;;22.00;99371.00;;;;2087135;28;20220;-47
2021/12/24 00:06:26;;;;;;;18.53;15.73;;;;;21.90;99350.00;;;;2087296;28;20459;-47
2021/12/24 00:07:27;;;;;;;17.13;15.27;;;;;21.90;99356.00;;;;2087438;28;20259;-48
2021/12/24 00:08:27;;;;;;;16.20;14.60;;;;;21.90;99347.00;;;;2083050;28;20209;-47
2021/12/24 00:09:33;;;;;;;16.13;14.43;;;;;21.90;99364.00;;;;2087267;28;20213;-47
2021/12/24 00:10:34;;;;;;;16.55;14.85;;;;;21.90;99358.00;;;;2085229;28;20615;-48
2021/12/24 00:11:35;;;;;;;16.52;14.82;;;;;21.90;99362.00;;;;2087025;28;20637;-47
2021/12/24 00:12:39;;;;;;;16.00;14.40;;;;;21.90;99353.00;;;;2083682;28;20217;-47
2021/12/24 00:13:43;;;;;;;15.95;14.40;;;;;21.80;99346.00;;;;2085494;28;20316;-48
2021/12/24 00:14:49;;;;;;;15.48;13.85;;;;;21.80;99351.00;;;;2087146;28;20228;-47
2021/12/24 00:16:02;;;;;;;16.00;14.40;;;;;21.80;99369.00;;;;2087155;28;20291;-47
2021/12/24 00:17:05;;;;;;;16.67;14.90;;;;;21.90;99344.00;;;;2087391;28;20298;-47
2021/12/24 00:35:15;;;;;;;13.57;12.20;;;;;21.70;99327.00;;;;2087104;28;20212;-47
2021/12/24 00:36:16;;;;;;;13.25;11.95;;;;;21.70;99339.00;;;;2086904;28;20220;-47
2021/12/24 00:37:16;;;;;;;14.00;12.40;;;;;21.70;99330.00;;;;2087385;28;20294;-48
2021/12/24 00:38:17;;;;;;;11.90;10.73;;;;;21.70;99327.00;;;;2079358;28;20216;-47
2021/12/24 00:39:17;;;;;;;15.27;12.03;;;;;21.70;99336.00;;;;2078996;28;20218;-47
2021/12/24 00:40:18;;;;;;;12.37;11.13;;;;;21.70;99333.00;;;;2078376;28;20206;-47
2021/12/24 00:41:19;;;;;;;13.70;12.23;;;;;21.70;99345.00;;;;2082877;28;20268;-47
2021/12/24 00:42:19;;;;;;;15.10;11.87;;;;;21.70;99342.00;;;;2086475;28;20217;-47
2021/12/24 00:43:21;;;;;;;12.80;11.57;;;;;21.70;99349.00;;;;2086684;28;20244;-47
2021/12/24 00:44:22;;;;;;;13.70;11.88;;;;;21.70;99329.00;;;;2086798;28;20221;-46
2021/12/24 00:45:24;;;;;;;12.30;11.10;;;;;21.70;99330.00;;;;2086078;28;20213;-47
2021/12/24 00:46:24;;;;;;;13.40;12.05;;;;;21.70;99328.00;;;;2086306;28;20684;-47
2021/12/24 00:47:25;;;;;;;12.60;11.30;;;;;21.60;99343.00;;;;2086738;28;20217;-47
2021/12/24 00:48:26;;;;;;;11.77;10.57;;;;;21.70;99330.00;;;;2086335;28;20251;-47
2021/12/24 00:49:26;;;;;;;12.40;11.17;;;;;21.60;99339.00;;;;2086173;28;20825;-47
2021/12/24 00:50:29;;;;;;;11.27;10.07;;;;;21.70;99338.00;;;;2085980;28;20728;-47
2021/12/24 00:51:42;;;;;;;12.80;11.32;;;;;21.60;99331.00;;;;2086255;28;20704;-47
2021/12/24 00:55:31;;;;;;;13.02;11.27;;;;;21.60;99323.00;;;;2070244;28;20221;-47
2021/12/24 00:56:31;;;;;;;11.50;10.40;;;;;21.60;99335.00;;;;2086445;28;20248;-47
2021/12/24 00:57:43;;;;;;;11.13;10.13;;;;;21.60;99344.00;;;;2086808;28;20460;-47
2021/12/24 00:58:43;;;;;;;11.70;10.50;;;;;21.60;99324.00;;;;2085647;28;20852;-47
2021/12/24 00:59:43;;;;;;;11.50;10.30;;;;;21.60;99336.00;;;;2087408;28;20208;-47
2021/12/24 01:00:44;;;;;;;11.50;10.30;;;;;21.60;99331.00;;;;2086446;28;20266;-47
2021/12/24 01:01:44;;;;;;;11.03;9.93;;;;;21.60;99331.00;;;;2087347;28;20205;-47
2021/12/24 01:02:45;;;;;;;11.80;10.70;;;;;21.60;99321.00;;;;2084009;28;20299;-47
2021/12/24 01:03:45;;;;;;;10.90;9.90;;;;;21.60;99326.00;;;;2087147;28;20217;-47
2021/12/24 01:04:46;;;;;;;10.53;9.53;;;;;21.60;99320.00;;;;2086849;28;20213;-47
2021/12/24 01:05:46;;;;;;;10.03;9.10;;;;;21.60;99328.00;;;;2087409;28;20232;-47
2021/12/24 01:06:46;;;;;;;9.73;8.73;;;;;21.60;99323.00;;;;2087280;28;20225;-47
2021/12/24 01:07:49;;;;;;;10.47;9.43;;;;;21.60;99341.00;;;;2079108;28;20214;-47
2021/12/24 01:08:49;;;;;;;10.05;9.23;;;;;21.60;99326.00;;;;2078964;28;20220;-47
2021/12/24 01:09:50;;;;;;;10.60;9.70;;;;;21.60;99331.00;;;;2078030;28;20237;-47
2021/12/24 01:10:52;;;;;;;9.80;8.90;;;;;21.60;99321.00;;;;2078056;28;20201;-47
2021/12/24 01:11:52;;;;;;;10.35;9.27;;;;;21.50;99320.00;;;;2079023;28;20206;-47
2021/12/24 01:12:53;;;;;;;10.67;9.67;;;;;21.50;99340.00;;;;2075500;28;20198;-47
2021/12/24 01:13:53;;;;;;;10.23;9.23;;;;;21.50;99325.00;;;;2077917;28;20272;-47
2021/12/24 01:14:54;;;;;;;10.40;9.27;;;;;21.50;99319.00;;;;2078451;28;20306;-47
2021/12/24 01:16:02;;;;;;;9.77;8.87;;;;;21.50;99329.00;;;;2078306;28;20215;-47
2021/12/24 01:18:25;;;;;;;8.95;8.15;;;;;21.50;99318.00;;;;2075775;28;20848;-47
2021/12/24 01:19:26;;;;;;;10.10;9.20;;;;;21.50;99320.00;;;;2085287;28;20300;-47
2021/12/24 01:20:37;;;;;;;10.55;9.55;;;;;21.50;99319.00;;;;2086022;28;20241;-47
2021/12/24 01:21:59;;;;;;;9.00;8.20;;;;;21.50;99310.00;;;;2086503;28;20629;-47
2021/12/24 01:24:30;;;;;;;8.93;8.02;;;;;21.50;99308.00;;;;2086665;28;20205;-48
2021/12/24 01:25:39;;;;;;;8.60;7.70;;;;;21.40;99318.00;;;;2086575;28;21044;-46
2021/12/24 01:37:51;;;;;;;8.60;7.78;;;;;21.50;99310.00;;;;2085847;28;20220;-47
2021/12/24 01:38:12;;;;;;;8.45;7.65;;;;;21.40;99295.00;;;;2073551;28;20736;-47
2021/12/24 01:39:22;;;;;;;7.85;7.15;;;;;21.40;99315.00;;;;2086173;28;20213;-47
2021/12/24 01:40:40;;;;;;;8.35;7.55;;;;;21.40;99309.00;;;;2085810;28;20209;-47
2021/12/24 01:43:00;;;;;;;7.65;6.95;;;;;21.40;99300.00;;;;2086898;28;20865;-47
2021/12/24 01:44:00;;;;;;;7.80;7.00;;;;;21.40;99295.00;;;;2086739;28;20216;-47
2021/12/24 01:45:00;;;;;;;7.57;6.87;;;;;21.40;99296.00;;;;2086771;28;20209;-47
2021/12/24 01:46:01;;;;;;;7.97;7.17;;;;;21.40;99304.00;;;;2086859;28;20224;-47
2021/12/24 01:47:03;;;;;;;8.07;7.37;;;;;21.40;99310.00;;;;2086959;28;20213;-47
2021/12/24 01:48:06;;;;;;;7.63;6.85;;;;;21.40;99297.00;;;;2086674;28;20296;-47
2021/12/24 01:49:07;;;;;;;7.32;6.63;;;;;21.40;99299.00;;;;2086864;28;20304;-47
2021/12/24 01:50:07;;;;;;;7.70;7.00;;;;;21.40;99287.00;;;;2087179;28;20580;-48
2021/12/24 01:51:07;;;;;;;7.23;6.60;;;;;21.40;99292.00;;;;2086051;28;20219;-48
2021/12/24 01:52:08;;;;;;;7.03;6.43;;;;;21.40;99299.00;;;;2086907;28;20220;-47
2021/12/24 01:53:09;;;;;;;7.43;6.83;;;;;21.40;99292.00;;;;2086127;28;20216;-47
2021/12/24 01:54:11;;;;;;;7.55;6.88;;;;;21.10;99291.00;;;;2085979;28;20787;-47
2021/12/24 01:55:12;;;;;;;7.28;6.68;;;;;21.40;99279.00;;;;2085999;28;20212;-47
2021/12/24 01:56:12;;;;;;;7.60;6.90;;;;;21.40;99283.00;;;;2086952;28;20213;-48
2021/12/24 01:57:12;;;;;;;7.40;6.70;;;;;21.30;99297.00;;;;2087061;28;20251;-47
2021/12/24 01:58:13;;;;;;;7.27;6.57;;;;;21.30;99287.00;;;;2086859;28;20228;-47
2021/12/24 01:59:13;;;;;;;7.83;7.13;;;;;21.40;99293.00;;;;2086965;28;20220;-47
2021/12/24 02:00:17;;;;;;;7.50;6.80;;;;;21.40;99297.00;;;;2086837;28;20320;-47
2021/12/24 02:01:18;;;;;;;7.47;6.78;;;;;21.40;99294.00;;;;2086406;28;20220;-47
2021/12/24 02:02:18;;;;;;;7.73;6.93;;;;;21.30;99290.00;;;;2087044;28;20215;-47
2021/12/24 02:03:19;;;;;;;7.50;6.80;;;;;21.30;99307.00;;;;2086486;28;20248;-47
2021/12/24 02:04:19;;;;;;;7.10;6.50;;;;;21.30;99294.00;;;;2086251;28;20256;-47
2021/12/24 02:05:19;;;;;;;6.03;5.53;;;;;21.30;99296.00;;;;2086449;28;20282;-47
2021/12/24 02:06:20;;;;;;;7.37;6.70;;;;;21.30;99288.00;;;;2086962;28;20221;-47
2021/12/24 02:07:20;;;;;;;7.43;6.73;;;;;21.30;99290.00;;;;2086563;28;20224;-51
2021/12/24 02:08:21;;;;;;;7.13;6.50;;;;;21.30;99322.00;;;;2086835;28;20239;-49
2021/12/24 02:09:21;;;;;;;6.60;6.00;;;;;21.30;99288.00;;;;2086682;28;20625;-47
2021/12/24 02:10:21;;;;;;;7.07;6.40;;;;;21.30;99294.00;;;;2085444;28;20689;-49
2021/12/24 02:11:22;;;;;;;6.70;6.10;;;;;21.30;99284.00;;;;2086607;28;20213;-48
2021/12/24 02:12:24;;;;;;;7.40;6.70;;;;;21.30;99296.00;;;;2086851;28;20212;-48
2021/12/24 02:13:25;;;;;;;6.32;5.82;;;;;21.30;99292.00;;;;2086632;28;20526;-47
2021/12/24 02:14:33;;;;;;;6.97;6.37;;;;;21.30;99289.00;;;;2086577;28;20282;-47
2021/12/24 02:15:48;;;;;;;6.90;6.30;;;;;21.30;99289.00;;;;2086817;28;20719;-48
2021/12/24 02:28:36;;;;;;;7.00;6.40;;;;;21.30;99263.00;;;;2086546;28;20303;-48
2021/12/24 02:29:37;;;;;;;7.10;6.50;;;;;21.30;99284.00;;;;2086868;28;20299;-47
2021/12/24 02:30:37;;;;;;;6.60;6.00;;;;;21.20;99280.00;;;;2085550;28;20212;-47
2021/12/24 02:31:37;;;;;;;6.30;5.80;;;;;21.20;99285.00;;;;2086995;28;20303;-48
2021/12/24 02:32:41;;;;;;;6.77;6.17;;;;;21.20;99292.00;;;;2086892;28;20219;-46
2021/12/24 02:33:41;;;;;;;7.28;6.65;;;;;21.20;99275.00;;;;2086849;28;20224;-47
2021/12/24 02:34:42;;;;;;;6.60;6.00;;;;;21.20;99276.00;;;;2086553;28;20216;-47
2021/12/24 02:35:42;;;;;;;6.70;6.10;;;;;21.20;99280.00;;;;2086743;28;20228;-47
2021/12/24 02:36:43;;;;;;;6.07;5.57;;;;;21.20;99273.00;;;;2086623;28;20588;-47
2021/12/24 02:37:43;;;;;;;6.50;5.80;;;;;21.20;99282.00;;;;2086734;28;20705;-47
2021/12/24 02:38:43;;;;;;;7.23;6.63;;;;;21.20;99270.00;;;;2077425;28;20222;-47
2021/12/24 02:39:44;;;;;;;6.33;5.80;;;;;21.20;99270.00;;;;2077890;28;20224;-47
2021/12/24 02:40:44;;;;;;;7.33;6.63;;;;;21.20;99280.00;;;;2085772;28;20290;-48
2021/12/24 02:41:44;;;;;;;7.10;6.43;;;;;21.20;99273.00;;;;2086622;28;20296;-47
2021/12/24 02:42:50;;;;;;;7.13;6.53;;;;;21.20;99268.00;;;;2086652;28;20324;-48
2021/12/24 02:43:50;;;;;;;7.40;6.80;;;;;21.00;99271.00;;;;2086671;28;20224;-47
2021/12/24 02:44:51;;;;;;;6.77;6.17;;;;;21.20;99267.00;;;;2086002;28;20209;-47
2021/12/24 02:45:55;;;;;;;7.17;6.57;;;;;21.10;99266.00;;;;2085910;28;20312;-48
2021/12/24 02:49:07;;;;;;;6.80;6.20;;;;;21.20;99258.00;;;;2086499;28;20929;-47
2021/12/24 02:54:56;;;;;;;6.80;6.18;;;;;21.10;99241.00;;;;2086649;28;20213;-47
2021/12/24 02:55:56;;;;;;;7.50;6.80;;;;;21.10;99247.00;;;;2084305;28;20962;-47
2021/12/24 02:57:06;;;;;;;6.33;5.73;;;;;21.20;99258.00;;;;2086646;28;20592;-47
2021/12/24 02:58:07;;;;;;;6.95;6.35;;;;;21.10;99257.00;;;;2085717;28;20583;-48
2021/12/24 02:59:11;;;;;;;7.77;7.10;;;;;21.20;99245.00;;;;2086568;28;20228;-47
2021/12/24 03:00:16;;;;;;;7.22;6.53;;;;;21.20;99258.00;;;;2085917;28;20224;-47
2021/12/24 03:01:19;;;;;;;7.65;6.95;;;;;21.10;99252.00;;;;2078177;28;20237;-47
2021/12/24 03:02:19;;;;;;;7.28;6.68;;;;;21.10;99207.00;;;;2086011;28;20241;-47
2021/12/24 03:03:21;;;;;;;6.90;6.30;;;;;21.20;99246.00;;;;2085914;28;20221;-48
2021/12/24 03:04:21;;;;;;;7.28;6.68;;;;;21.10;99255.00;;;;2086492;28;20228;-47
2021/12/24 03:05:22;;;;;;;7.77;6.97;;;;;21.10;99243.00;;;;2086576;28;20244;-47
2021/12/24 03:06:26;;;;;;;7.50;6.80;;;;;21.10;99235.00;;;;2086396;28;20227;-47
2021/12/24 03:07:27;;;;;;;7.15;6.55;;;;;21.10;99254.00;;;;2086662;28;20221;-47
2021/12/24 03:08:27;;;;;;;7.13;6.53;;;;;21.10;99251.00;;;;2086358;28;20270;-47
2021/12/24 03:09:27;;;;;;;7.20;6.60;;;;;21.10;99255.00;;;;2086629;28;20240;-47
2021/12/24 03:10:28;;;;;;;7.67;6.97;;;;;21.10;99254.00;;;;2085220;28;20278;-48
2021/12/24 03:11:28;;;;;;;6.40;5.80;;;;;21.10;99254.00;;;;2086509;28;20236;-47
2021/12/24 03:12:29;;;;;;;7.20;6.60;;;;;21.10;99248.00;;;;2086700;28;20216;-47
2021/12/24 03:13:30;;;;;;;7.40;6.60;;;;;21.10;99253.00;;;;2085400;28;20846;-48
2021/12/24 03:14:30;;;;;;;7.17;6.57;;;;;21.10;99246.00;;;;2086381;28;20292;-48
2021/12/24 03:15:30;;;;;;;7.30;6.70;;;;;21.10;99241.00;;;;2086415;28;20209;-48
2021/12/24 03:16:31;;;;;;;6.90;6.20;;;;;21.10;99236.00;;;;2086699;28;20224;-47
2021/12/24 03:17:32;;;;;;;6.90;6.30;;;;;21.10;99247.00;;;;2085802;28;20241;-47
2021/12/24 03:18:35;;;;;;;6.72;6.20;;;;;21.10;99253.00;;;;2085773;28;20227;-47
2021/12/24 03:19:35;;;;;;;6.47;5.88;;;;;21.10;99239.00;;;;2086315;28;20225;-48
2021/12/24 03:20:36;;;;;;;7.07;6.47;;;;;21.10;99245.00;;;;2085645;28;20209;-47
2021/12/24 03:21:51;;;;;;;7.20;6.50;;;;;21.10;99246.00;;;;2086283;28;20235;-46
2021/12/24 03:23:32;;;;;;;7.40;6.72;;;;;21.10;99238.00;;;;2087790;28;20759;-46
2021/12/24 03:25:13;;;;;;;7.20;6.50;;;;;21.10;99238.00;;;;2087830;28;20205;-48
2021/12/24 03:26:14;;;;;;;6.87;6.17;;;;;21.10;99240.00;;;;2088033;28;20284;-47
2021/12/24 03:27:15;;;;;;;7.10;6.40;;;;;21.10;99254.00;;;;2087899;28;20447;-47
2021/12/24 03:28:16;;;;;;;7.00;6.40;;;;;21.10;99253.00;;;;2086845;28;20577;-48
2021/12/24 03:29:17;;;;;;;6.97;6.38;;;;;21.10;99254.00;;;;2088101;28;20964;-47
2021/12/24 03:30:18;;;;;;;6.40;5.80;;;;;21.00;99250.00;;;;2087500;28;20212;-46
2021/12/24 03:31:18;;;;;;;6.90;6.30;;;;;21.00;99248.00;;;;2087617;28;20205;-47
2021/12/24 03:32:18;;;;;;;6.50;5.90;;;;;21.00;99250.00;;;;2087568;28;20255;-47
2021/12/24 03:33:19;;;;;;;6.20;5.70;;;;;21.00;99239.00;;;;2087871;28;20227;-47
2021/12/24 03:34:20;;;;;;;7.60;6.90;;;;;21.00;99238.00;;;;2087568;28;20242;-47
2021/12/24 03:35:20;;;;;;;9.35;6.35;;;;;21.00;99251.00;;;;2087955;28;20278;-47
2021/12/24 03:36:21;;;;;;;7.13;6.53;;;;;21.10;99241.00;;;;2087862;28;20240;-47
2021/12/24 03:37:22;;;;;;;7.15;6.53;;;;;21.00;99242.00;;;;2087852;28;20209;-47
2021/12/24 03:38:22;;;;;;;7.63;6.93;;;;;21.00;99246.00;;;;2087557;28;21216;-47
2021/12/24 03:39:22;;;;;;;7.00;6.40;;;;;21.00;99232.00;;;;2087928;28;20282;-47
2021/12/24 03:40:23;;;;;;;7.90;7.10;;;;;21.00;99241.00;;;;2087193;28;20220;-48
2021/12/24 03:41:23;;;;;;;7.70;7.07;;;;;21.00;99250.00;;;;2087400;28;20282;-48
2021/12/24 03:42:24;;;;;;;7.37;6.67;;;;;21.00;99242.00;;;;2087799;28;20216;-47
2021/12/24 03:43:25;;;;;;;7.80;7.10;;;;;21.00;99240.00;;;;2087737;28;20446;-47
2021/12/24 03:44:32;;;;;;;7.82;7.13;;;;;21.00;99248.00;;;;2087661;28;20223;-47
2021/12/24 03:45:44;;;;;;;7.38;6.68;;;;;21.00;99242.00;;;;2087880;28;20313;-47
2021/12/24 03:46:59;;;;;;;7.32;6.72;;;;;21.00;99242.00;;;;2087245;28;20279;-47
2021/12/24 03:48:03;;;;;;;8.13;7.43;;;;;21.00;99257.00;;;;2088003;28;20212;-47
2021/12/24 03:49:08;;;;;;;7.72;7.03;;;;;21.00;99249.00;;;;2087204;28;20205;-47
2021/12/24 03:50:11;;;;;;;7.22;6.55;;;;;21.00;99248.00;;;;2087201;28;20262;-47
2021/12/24 03:52:32;;;;;;;9.45;8.65;;;;;20.80;99248.00;;;;2087794;28;20227;-46
2021/12/24 03:55:01;;;;;;;8.18;7.47;;;;;20.90;99252.00;;;;2087530;28;20213;-47
2021/12/24 03:56:01;;;;;;;8.07;7.40;;;;;21.00;99238.00;;;;2087725;28;20224;-47
2021/12/24 03:57:42;;;;;;;7.97;7.30;;;;;21.00;99253.00;;;;2087624;28;20213;-46
2021/12/24 04:00:53;;;;;;;7.95;7.25;;;;;20.90;99248.00;;;;2075073;28;20201;-47
2021/12/24 04:01:54;;;;;;;8.32;7.53;;;;;21.00;99255.00;;;;2073756;28;20217;-46
2021/12/24 04:02:54;;;;;;;8.27;7.57;;;;;21.00;99248.00;;;;2079233;28;20205;-47
2021/12/24 04:03:54;;;;;;;8.87;8.03;;;;;21.00;99258.00;;;;2079562;28;20245;-47
2021/12/24 04:04:55;;;;;;;9.13;8.33;;;;;21.00;99254.00;;;;2079170;28;20210;-47
2021/12/24 04:05:55;;;;;;;8.67;7.90;;;;;20.90;99267.00;;;;2079577;28;20206;-47
2021/12/24 04:06:55;;;;;;;9.50;8.50;;;;;21.00;99260.00;;;;2079662;28;20271;-47
2021/12/24 04:07:56;;;;;;;8.83;8.03;;;;;21.00;99259.00;;;;2079334;28;20276;-47
2021/12/24 04:08:56;;;;;;;8.43;7.73;;;;;21.00;99265.00;;;;2079443;28;20228;-47
2021/12/24 04:10:06;;;;;;;8.50;7.80;;;;;21.00;99269.00;;;;2079552;28;20297;-47
2021/12/24 04:11:06;;;;;;;8.25;7.55;;;;;21.00;99253.00;;;;2078317;28;20800;-47
2021/12/24 04:12:07;;;;;;;10.00;8.87;;;;;20.90;99269.00;;;;2079059;28;21706;-47
2021/12/24 04:13:08;;;;;;;9.13;8.37;;;;;20.90;99273.00;;;;2079171;28;20221;-49
2021/12/24 04:14:08;;;;;;;9.27;8.48;;;;;20.90;99269.00;;;;2078875;28;20213;-47
2021/12/24 04:15:09;;;;;;;9.13;8.30;;;;;20.90;99274.00;;;;2079255;28;20255;-48
2021/12/24 04:16:09;;;;;;;9.10;8.30;;;;;20.90;99266.00;;;;2079038;28;20210;-47
2021/12/24 04:17:10;;;;;;;8.73;7.93;;;;;20.90;99274.00;;;;2078378;28;20220;-47
2021/12/24 04:18:23;;;;;;;8.60;7.80;;;;;20.90;99282.00;;;;2079291;28;20217;-47
2021/12/24 04:24:50;;;;;;;8.63;7.82;;;;;20.90;99262.00;;;;2079298;28;20224;-47
2021/12/24 04:24:53;;;;;;;9.43;8.52;;;;;20.90;99271.00;;;;2085514;28;20220;-48
2021/12/24 04:25:53;;;;;;;9.02;8.23;;;;;20.90;99270.00;;;;2087429;28;20688;-47
2021/12/24 04:26:54;;;;;;;9.03;8.17;;;;;20.90;99269.00;;;;2087575;28;20213;-47
2021/12/24 04:27:57;;;;;;;8.97;8.17;;;;;20.90;99266.00;;;;2087658;28;20224;-47
2021/12/24 04:28:57;;;;;;;9.55;8.70;;;;;20.90;99264.00;;;;2087288;28;20941;-47
2021/12/24 04:30:11;;;;;;;8.60;7.90;;;;;20.90;99256.00;;;;2087332;28;20228;-47
2021/12/24 04:31:11;;;;;;;10.02;9.02;;;;;20.90;99265.00;;;;2086341;28;20228;-47
2021/12/24 04:32:19;;;;;;;9.23;8.43;;;;;20.90;99264.00;;;;2087059;28;20732;-47
2021/12/24 04:33:29;;;;;;;8.77;8.07;;;;;20.90;99271.00;;;;2087115;28;20626;-47
2021/12/24 04:34:33;;;;;;;9.40;8.50;;;;;20.90;99279.00;;;;2087300;28;20216;-47
2021/12/24 04:35:44;;;;;;;9.00;8.15;;;;;20.90;99273.00;;;;2087264;28;20213;-47
2021/12/24 04:39:14;;;;;;;9.80;8.80;;;;;20.90;99260.00;;;;2087371;28;20217;-47
2021/12/24 04:52:09;;;;;;;10.30;9.45;;;;;20.80;99257.00;;;;2086626;28;20663;-48
2021/12/24 05:01:15;;;;;;;9.05;8.23;;;;;20.80;99270.00;;;;2086125;28;20715;-47
2021/12/24 05:01:49;;;;;;;10.00;9.10;;;;;20.80;99266.00;;;;2086076;28;20208;-47
2021/12/24 05:02:56;;;;;;;10.02;9.15;;;;;20.80;99261.00;;;;2083943;28;20217;-47
2021/12/24 05:03:57;;;;;;;9.43;8.63;;;;;20.80;99273.00;;;;2086891;28;20217;-47
2021/12/24 05:05:20;;;;;;;11.70;10.60;;;;;20.80;99267.00;;;;2086993;28;20742;-48
2021/12/24 05:09:06;;;;;;;10.02;9.13;;;;;20.80;99270.00;;;;2059968;28;20219;-47
2021/12/24 05:10:07;;;;;;;10.57;9.68;;;;;20.80;99269.00;;;;2053615;28;20672;-47
2021/12/24 05:11:10;;;;;;;9.97;9.07;;;;;20.80;99274.00;;;;2053832;28;20216;-47
2021/12/24 05:12:11;;;;;;;8.68;7.90;;;;;20.80;99272.00;;;;2061671;28;20266;-47
2021/12/24 05:13:12;;;;;;;9.73;8.90;;;;;20.80;99253.00;;;;2061567;28;20665;-47
2021/12/24 05:14:15;;;;;;;10.90;9.65;;;;;20.80;99282.00;;;;2055486;28;20218;-47
2021/12/24 05:15:16;;;;;;;9.88;8.98;;;;;20.70;99275.00;;;;2085957;28;20208;-47
2021/12/24 05:16:49;;;;;;;11.05;9.95;;;;;20.70;99274.00;;;;2085744;28;20279;-48
2021/12/24 05:18:09;;;;;;;9.00;8.27;;;;;20.80;99275.00;;;;2077077;28;20625;-47
2021/12/24 05:21:48;;;;;;;9.85;8.95;;;;;20.70;99281.00;;;;2085711;28;20240;-48
2021/12/24 05:22:48;;;;;;;10.23;9.27;;;;;20.80;99266.00;;;;2087022;28;20216;-47
2021/12/24 05:23:48;;;;;;;9.63;8.73;;;;;20.80;99275.00;;;;2086714;28;21395;-47
2021/12/24 05:24:49;;;;;;;11.40;10.30;;;;;20.80;99266.00;;;;2087053;28;20213;-47
2021/12/24 05:25:50;;;;;;;10.23;9.23;;;;;20.80;99280.00;;;;2087091;28;20212;-46
2021/12/24 05:26:52;;;;;;;11.25;10.15;;;;;20.80;99270.00;;;;2086815;28;20586;-47
2021/12/24 05:27:55;;;;;;;9.68;8.70;;;;;20.70;99281.00;;;;2087046;28;20219;-48
2021/12/24 05:28:57;;;;;;;10.38;9.48;;;;;20.70;99269.00;;;;2087126;28;20235;-46
2021/12/24 05:29:58;;;;;;;9.77;8.90;;;;;20.70;99274.00;;;;2086805;28;20212;-47
2021/12/24 05:30:58;;;;;;;11.27;10.20;;;;;20.70;99273.00;;;;2086071;28;20220;-47
2021/12/24 05:31:59;;;;;;;10.17;9.17;;;;;20.70;99276.00;;;;2078699;28;20304;-47
2021/12/24 05:32:59;;;;;;;10.77;9.77;;;;;20.70;99280.00;;;;2078906;28;20267;-47
2021/12/24 05:33:59;;;;;;;10.93;9.97;;;;;20.70;99276.00;;;;2079045;28;20209;-48
2021/12/24 05:35:00;;;;;;;10.60;9.60;;;;;20.70;99276.00;;;;2078469;28;20259;-47
2021/12/24 05:36:00;;;;;;;10.10;9.20;;;;;20.70;99276.00;;;;2078822;28;20214;-48
2021/12/24 05:37:00;;;;;;;10.13;9.20;;;;;20.70;99269.00;;;;2087149;28;20219;-47
2021/12/24 05:38:01;;;;;;;10.10;9.10;;;;;20.70;99280.00;;;;2087016;28;20624;-47
2021/12/24 05:39:02;;;;;;;10.77;9.70;;;;;20.70;99269.00;;;;2086981;28;20735;-47
2021/12/24 05:40:03;;;;;;;9.98;9.15;;;;;20.70;99266.00;;;;2086101;28;20204;-47
2021/12/24 05:41:03;;;;;;;10.40;9.40;;;;;20.70;99276.00;;;;2085040;28;20312;-47
2021/12/24 05:42:04;;;;;;;10.83;9.83;;;;;20.70;99282.00;;;;2086120;28;20632;-48
2021/12/24 05:43:04;;;;;;;10.20;9.20;;;;;20.70;99279.00;;;;2086275;28;20212;-47
2021/12/24 05:44:05;;;;;;;10.67;9.67;;;;;20.70;99285.00;;;;2086993;28;20216;-47
2021/12/24 05:45:07;;;;;;;11.10;10.00;;;;;20.70;99279.00;;;;2085218;28;20209;-46
2021/12/24 05:46:07;;;;;;;10.45;9.55;;;;;20.70;99274.00;;;;2086115;28;20220;-46
2021/12/24 05:47:08;;;;;;;10.77;9.77;;;;;20.70;99280.00;;;;2086864;28;20209;-47
2021/12/24 05:48:08;;;;;;;10.10;9.30;;;;;20.70;99274.00;;;;2086947;28;20212;-46
2021/12/24 05:49:08;;;;;;;10.57;9.67;;;;;20.70;99281.00;;;;2086898;28;20304;-47
2021/12/24 05:50:09;;;;;;;10.33;9.43;;;;;20.70;99282.00;;;;2086801;28;20209;-47
2021/12/24 05:51:10;;;;;;;10.90;9.80;;;;;20.70;99273.00;;;;2085586;28;20242;-47
2021/12/24 05:52:10;;;;;;;10.43;9.53;;;;;20.70;99279.00;;;;2086897;28;20213;-47
2021/12/24 05:53:10;;;;;;;10.00;9.10;;;;;20.70;99274.00;;;;2087021;28;20208;-47
2021/12/24 05:54:11;;;;;;;10.50;9.43;;;;;20.70;99272.00;;;;2086142;28;20705;-47
2021/12/24 05:55:11;;;;;;;9.50;8.70;;;;;20.70;99271.00;;;;2086056;28;20749;-47
2021/12/24 05:56:11;;;;;;;10.93;10.03;;;;;20.70;99279.00;;;;2086655;28;20233;-47
2021/12/24 05:57:12;;;;;;;10.70;9.77;;;;;20.70;99280.00;;;;2086566;28;20995;-47
2021/12/24 05:58:12;;;;;;;9.57;8.70;;;;;20.70;99281.00;;;;2086891;28;20589;-47
2021/12/24 05:59:13;;;;;;;10.03;9.13;;;;;20.70;99280.00;;;;2086310;28;20575;-47
2021/12/24 06:00:13;;;;;;;10.03;9.13;;;;;20.80;99277.00;;;;2086718;28;20892;-47
2021/12/24 06:01:14;;;;;;;10.10;9.20;;;;;20.70;99291.00;;;;2085968;28;20216;-48
2021/12/24 06:02:14;;;;;;;10.70;9.70;;;;;20.80;99284.00;;;;2086687;28;20217;-46
2021/12/24 06:03:16;;;;;;;10.18;9.38;;;;;20.70;99282.00;;;;2086827;28;20229;-47
2021/12/24 06:04:16;;;;;;;9.23;8.33;;;;;20.70;99283.00;;;;2086838;28;20221;-47
2021/12/24 06:05:16;;;;;;;9.03;8.27;;;;;20.80;99287.00;;;;2086687;28;20270;-47
2021/12/24 06:06:17;;;;;;;8.60;7.90;;;;;20.80;99291.00;;;;2086788;28;20220;-47
2021/12/24 06:07:17;;;;;;;7.40;6.70;;;;;20.90;99297.00;;;;2086849;28;20318;-48
2021/12/24 06:08:17;;;;;;;8.10;7.40;;;;;20.90;99286.00;;;;2086978;28;20607;-48
2021/12/24 06:09:18;;;;;;;8.57;7.77;;;;;20.90;99294.00;;;;2086903;28;20239;-47
2021/12/24 06:10:18;;;;;;;8.10;7.40;;;;;20.90;99289.00;;;;2077610;28;20327;-48
2021/12/24 06:11:18;;;;;;;8.47;7.67;;;;;20.90;99288.00;;;;2078192;28;20226;-47
2021/12/24 06:12:19;;;;;;;8.63;7.73;;;;;20.90;99285.00;;;;2078637;28;20272;-47
2021/12/24 06:13:19;;;;;;;7.40;6.73;;;;;20.90;99289.00;;;;2078535;28;20221;-48
2021/12/24 06:14:19;;;;;;;8.27;7.57;;;;;20.90;99285.00;;;;2078380;28;20225;-48
2021/12/24 06:15:23;;;;;;;8.10;7.40;;;;;20.90;99286.00;;;;2078468;28;20228;-47
2021/12/24 06:16:24;;;;;;;7.85;6.90;;;;;21.00;99295.00;;;;2078247;28;20308;-48
2021/12/24 06:17:24;;;;;;;7.30;6.70;;;;;20.90;99290.00;;;;2078165;28;20581;-50
2021/12/24 06:18:27;;;;;;;7.40;6.80;;;;;20.90;99287.00;;;;2078267;28;20296;-49
2021/12/24 06:19:28;;;;;;;7.55;6.85;;;;;21.00;99287.00;;;;2083257;28;20217;-46
2021/12/24 06:20:28;;;;;;;8.23;7.17;;;;;21.00;99288.00;;;;2085840;28;20224;-48
2021/12/24 06:21:28;;;;;;;7.90;7.20;;;;;21.00;99289.00;;;;2086106;28;20220;-47
2021/12/24 06:22:29;;;;;;;7.37;6.77;;;;;21.00;99278.00;;;;2086746;28;20216;-47
2021/12/24 06:23:29;;;;;;;8.03;6.43;;;;;21.00;99293.00;;;;2086439;28;20221;-47
2021/12/24 06:24:30;;;;;;;7.40;6.63;;;;;21.00;99290.00;;;;2086812;28;20216;-47
2021/12/24 06:25:30;;;;;;;7.57;6.97;;;;;21.00;99283.00;;;;2086620;28;20452;-47
2021/12/24 06:26:30;;;;;;;7.20;6.60;;;;;21.00;99279.00;;;;2085772;28;20321;-47
2021/12/24 06:27:31;;;;;;;8.03;7.03;;;;;21.00;99282.00;;;;2086174;28;20208;-47
2021/12/24 06:28:31;;;;;;;6.80;6.20;;;;;21.00;99293.00;;;;2086362;28;20244;-47
2021/12/24 06:29:32;;;;;;;7.10;6.40;;;;;21.00;99290.00;;;;2086543;28;20259;-47
2021/12/24 06:30:32;;;;;;;7.60;6.80;;;;;21.00;99291.00;;;;2085557;28;20229;-47
2021/12/24 06:31:32;;;;;;;8.10;6.70;;;;;21.10;99288.00;;;;2086768;28;20834;-47
2021/12/24 06:32:33;;;;;;;7.47;6.83;;;;;21.10;99292.00;;;;2086718;28;20295;-46
2021/12/24 06:33:33;;;;;;;7.23;6.53;;;;;21.10;99298.00;;;;2085848;28;20205;-48
2021/12/24 06:34:34;;;;;;;6.90;6.30;;;;;21.10;99289.00;;;;2086614;28;20262;-46
2021/12/24 06:35:34;;;;;;;7.00;6.30;;;;;21.00;99290.00;;;;2086528;28;20213;-48
2021/12/24 06:36:37;;;;;;;7.70;6.93;;;;;21.10;99285.00;;;;2086884;28;20286;-47
2021/12/24 06:37:37;;;;;;;8.07;7.18;;;;;21.10;99287.00;;;;2084719;28;20228;-47
2021/12/24 06:38:38;;;;;;;7.60;6.80;;;;;21.10;99290.00;;;;2086084;28;20223;-48
2021/12/24 06:39:38;;;;;;;6.80;6.10;;;;;21.10;99291.00;;;;2086501;28;20235;-47
2021/12/24 06:40:38;;;;;;;7.47;6.77;;;;;21.10;99299.00;;;;2085812;28;20282;-47